Time;durP1;ratioP1;P1;durP2;ratioP2;P2;SDS_P1;SDS_P2;PMS_P1;PMS_P2;Temp;Humidity;BMP_temperature;BMP_pressure;BME280_temperature;BME280_humidity;BME280_pressure;Samples;Min_cycle;Max_cycle;Signal;HPM_P1;HPM_P2
2022/11/30 00:02:01;;;;;;;11.63;2.78;;;;;;;-1.40;100.00;102085.16;10301719;28;20073;-70
2022/11/30 00:07:02;;;;;;;21.08;2.17;;;;;;;-1.49;100.00;102062.00;10299283;28;20045;-71
2022/11/30 00:12:03;;;;;;;22.55;2.78;;;;;;;-1.78;100.00;102022.06;10295225;28;20046;-71
2022/11/30 00:17:03;;;;;;;22.73;2.60;;;;;;;-1.52;100.00;102062.09;10295403;28;20503;-70
2022/11/30 00:22:04;;;;;;;33.05;3.17;;;;;;;-1.38;100.00;102072.91;10294552;28;20058;-70
2022/11/30 00:27:05;;;;;;;25.58;3.03;;;;;;;-1.50;100.00;102073.31;10292916;28;20406;-70
2022/11/30 00:32:06;;;;;;;15.75;3.00;;;;;;;-1.50;100.00;102086.34;10294037;28;20038;-71
2022/11/30 00:37:07;;;;;;;18.90;2.20;;;;;;;-1.62;100.00;102057.16;10303563;28;20085;-70
2022/11/30 00:42:07;;;;;;;23.05;2.33;;;;;;;-1.40;100.00;102095.59;10293301;28;20050;-70
2022/11/30 00:47:08;;;;;;;24.63;2.50;;;;;;;-1.40;100.00;102104.25;10293358;28;20065;-71
2022/11/30 00:52:09;;;;;;;33.90;2.80;;;;;;;-1.31;100.00;102112.72;10292813;28;20045;-71
2022/11/30 00:57:10;;;;;;;12.95;2.28;;;;;;;-1.32;100.00;102098.78;10293880;28;20049;-70
2022/11/30 01:02:11;;;;;;;24.45;2.50;;;;;;;-1.35;100.00;102091.06;10293134;28;20049;-70
2022/11/30 01:07:12;;;;;;;15.63;2.38;;;;;;;-1.42;100.00;102064.34;10292305;28;20039;-70
2022/11/30 01:12:12;;;;;;;17.30;2.53;;;;;;;-1.14;100.00;102092.13;10293100;28;20402;-70
2022/11/30 01:17:13;;;;;;;23.23;3.40;;;;;;;-1.32;100.00;102046.66;10291310;28;20047;-70
2022/11/30 01:22:14;;;;;;;25.23;2.58;;;;;;;-0.97;100.00;102083.75;10292203;28;20065;-71
2022/11/30 01:27:15;;;;;;;21.70;2.53;;;;;;;-0.92;100.00;102098.38;10292512;28;20054;-71
2022/11/30 01:32:16;;;;;;;24.65;2.45;;;;;;;-1.02;100.00;102072.63;10291743;28;20542;-71
2022/11/30 01:37:17;;;;;;;35.20;3.10;;;;;;;-1.32;100.00;102006.69;10290962;28;20491;-70
2022/11/30 01:42:19;;;;;;;15.10;2.10;;;;;;;-0.80;100.00;102096.25;10291687;28;20042;-70
2022/11/30 01:47:27;;;;;;;18.88;2.17;;;;;;;-0.76;100.00;102103.06;10291766;28;20054;-71
2022/11/30 01:52:34;;;;;;;21.90;3.30;;;;;;;-1.01;100.00;102071.75;10291639;28;20043;-70
2022/11/30 01:57:53;;;;;;;29.60;2.70;;;;;;;-1.34;100.00;102014.59;10292804;28;20047;-71
2022/11/30 02:02:54;;;;;;;18.58;2.33;;;;;;;-0.87;100.00;102102.56;10296389;28;20050;-70
2022/11/30 02:07:55;;;;;;;28.92;2.63;;;;;;;-0.93;100.00;102101.88;10302517;28;20042;-71
2022/11/30 02:13:14;;;;;;;19.63;2.63;;;;;;;-0.89;100.00;102091.34;10320079;28;20066;-72
2022/11/30 02:18:24;;;;;;;14.15;1.90;;;;;;;-0.90;100.00;102079.19;10299888;28;20046;-71
2022/11/30 02:23:49;;;;;;;21.48;2.50;;;;;;;-0.88;100.00;102098.25;10303887;28;20136;-70
2022/11/30 02:28:58;;;;;;;24.83;2.55;;;;;;;-0.97;100.00;102068.13;10338665;28;20046;-71
2022/11/30 02:34:01;;;;;;;23.10;2.35;;;;;;;-1.05;100.00;102055.31;10354197;28;20039;-71
2022/11/30 02:39:04;;;;;;;27.67;2.65;;;;;;;-0.97;100.00;102084.59;10338727;28;20181;-71
2022/11/30 02:44:08;;;;;;;30.20;3.00;;;;;;;-0.81;100.00;102100.59;10337834;28;20034;-71
2022/11/30 02:49:19;;;;;;;22.67;2.58;;;;;;;-0.85;100.00;102101.59;10338459;28;20116;-72
2022/11/30 02:54:20;;;;;;;20.33;2.53;;;;;;;-0.81;100.00;102097.97;10338432;28;20046;-71
2022/11/30 02:59:21;;;;;;;13.98;2.28;;;;;;;-1.20;100.00;102024.53;10338482;28;20101;-71
2022/11/30 03:04:22;;;;;;;27.35;3.22;;;;;;;-0.79;100.00;102084.91;10305909;28;20089;-71
2022/11/30 03:09:23;;;;;;;24.13;2.67;;;;;;;-0.81;100.00;102079.72;10298822;28;20162;-71
2022/11/30 03:14:23;;;;;;;15.20;2.20;;;;;;;-0.92;100.00;102068.81;10310209;28;20427;-72
2022/11/30 03:19:24;;;;;;;20.27;2.50;;;;;;;-0.83;100.00;102078.09;10335032;28;20445;-74
2022/11/30 03:24:25;;;;;;;17.15;2.92;;;;;;;-0.87;100.00;102079.94;10337139;28;20050;-72
2022/11/30 03:29:26;;;;;;;15.35;1.88;;;;;;;-0.88;100.00;102074.78;10336361;28;20042;-71
2022/11/30 03:34:27;;;;;;;15.90;2.50;;;;;;;-0.85;100.00;102082.50;10336706;28;20195;-71
2022/11/30 03:39:28;;;;;;;20.90;2.05;;;;;;;-0.86;100.00;102078.19;10337214;28;20101;-71
2022/11/30 03:44:29;;;;;;;16.85;1.85;;;;;;;-0.93;100.00;102077.53;10315397;28;20037;-70
2022/11/30 03:49:30;;;;;;;17.63;2.40;;;;;;;-1.22;100.00;102032.41;10295638;28;20054;-70
2022/11/30 03:54:30;;;;;;;20.55;1.88;;;;;;;-1.12;100.00;102072.06;10296242;28;20614;-70
2022/11/30 03:59:31;;;;;;;13.80;1.98;;;;;;;-1.06;100.00;102082.31;10295457;28;20042;-69
2022/11/30 04:04:32;;;;;;;20.77;1.83;;;;;;;-1.06;100.00;102079.69;10294685;28;20491;-69
2022/11/30 04:09:33;;;;;;;8.45;2.22;;;;;;;-1.07;100.00;102083.22;10295248;28;20407;-69
2022/11/30 04:14:33;;;;;;;20.40;2.33;;;;;;;-1.60;100.00;101984.16;10293795;28;20419;-70
2022/11/30 04:19:34;;;;;;;8.18;1.70;;;;;;;-1.17;100.00;102060.94;10294379;28;20039;-69
2022/11/30 04:24:35;;;;;;;7.95;1.95;;;;;;;-0.94;100.00;102092.34;10292309;28;20407;-68
2022/11/30 04:29:36;;;;;;;15.73;1.70;;;;;;;-1.15;100.00;102046.94;10297639;28;20038;-69
2022/11/30 04:34:36;;;;;;;15.52;1.48;;;;;;;-1.50;100.00;101998.56;10316809;28;20050;-71
2022/11/30 04:39:37;;;;;;;10.55;1.80;;;;;;;-1.42;100.00;102004.38;10317888;28;20050;-71
2022/11/30 04:44:39;;;;;;;18.13;2.10;;;;;;;-0.93;100.00;102093.19;10305936;28;20509;-70
2022/11/30 04:49:39;;;;;;;14.77;2.33;;;;;;;-0.80;100.00;102097.09;10312684;28;20145;-70
2022/11/30 04:54:40;;;;;;;22.85;2.13;;;;;;;-1.30;100.00;102020.53;10308186;28;20125;-70
2022/11/30 04:59:41;;;;;;;13.60;2.33;;;;;;;-0.80;100.00;102114.53;10333449;28;20053;-73
2022/11/30 05:04:42;;;;;;;13.05;2.35;;;;;;;-1.30;100.00;102029.22;10334139;28;20394;-70
2022/11/30 05:09:43;;;;;;;15.63;2.20;;;;;;;-0.83;100.00;102092.00;10333695;28;20152;-71
2022/11/30 05:14:44;;;;;;;14.77;1.70;;;;;;;-1.11;100.00;102034.66;10333609;28;20265;-70
2022/11/30 05:19:44;;;;;;;14.43;2.03;;;;;;;-0.63;100.00;102116.53;10333117;28;20414;-70
2022/11/30 05:24:45;;;;;;;12.32;1.83;;;;;;;-0.66;100.00;102125.31;10333279;28;20049;-70
2022/11/30 05:29:46;;;;;;;9.30;2.10;;;;;;;-0.62;100.00;102110.44;10332329;28;20120;-70
2022/11/30 05:34:48;;;;;;;15.68;2.05;;;;;;;-0.67;100.00;102100.13;10332117;28;20058;-70
2022/11/30 05:39:49;;;;;;;9.07;1.80;;;;;;;-0.51;100.00;102130.03;10332444;28;20541;-70
2022/11/30 05:44:50;;;;;;;15.18;1.83;;;;;;;-0.51;100.00;102124.81;10332854;28;20124;-71
2022/11/30 05:49:50;;;;;;;6.20;1.80;;;;;;;-0.35;100.00;102148.63;10331674;28;20062;-71
2022/11/30 05:54:51;;;;;;;10.75;1.92;;;;;;;-0.32;100.00;102134.63;10331878;28;20133;-70
2022/11/30 05:59:52;;;;;;;8.45;1.98;;;;;;;-0.87;100.00;102047.78;10330793;28;20049;-71
2022/11/30 06:04:53;;;;;;;7.32;1.85;;;;;;;-0.49;100.00;102107.31;10331898;28;20042;-71
2022/11/30 06:09:53;;;;;;;5.90;1.83;;;;;;;-0.25;100.00;102138.72;10332265;28;20458;-71
2022/11/30 06:14:54;;;;;;;11.15;1.90;;;;;;;-0.44;100.00;102112.41;10331234;28;20035;-71
2022/11/30 06:19:55;;;;;;;9.43;1.98;;;;;;;-0.20;100.00;102126.34;10329892;28;20065;-72
2022/11/30 06:24:55;;;;;;;15.32;2.28;;;;;;;-0.49;100.00;102093.41;10330621;28;20415;-71
2022/11/30 06:29:56;;;;;;;6.18;1.77;;;;;;;-0.02;100.00;102136.13;10331297;28;20069;-69
2022/11/30 06:34:57;;;;;;;10.80;2.13;;;;;;;-0.07;99.93;102117.16;10331057;28;20467;-70
2022/11/30 06:39:58;;;;;;;11.48;1.83;;;;;;;-0.40;100.00;102066.97;10330142;28;20407;-70
2022/11/30 06:44:59;;;;;;;4.70;1.35;;;;;;;0.18;99.91;102134.53;10330703;28;20042;-70
2022/11/30 06:49:59;;;;;;;9.98;1.85;;;;;;;0.34;99.31;102134.81;10351606;28;20415;-70
2022/11/30 06:55:00;;;;;;;9.57;1.85;;;;;;;0.20;98.76;102111.81;10338795;28;20038;-70
2022/11/30 07:00:01;;;;;;;10.57;1.60;;;;;;;0.49;98.88;102122.94;10353199;28;20053;-71
2022/11/30 07:05:02;;;;;;;8.68;1.80;;;;;;;0.41;98.36;102110.97;10337799;28;20038;-71
2022/11/30 07:10:04;;;;;;;11.85;1.60;;;;;;;0.49;97.83;102121.16;10338212;28;20042;-71
2022/11/30 07:15:05;;;;;;;9.50;1.88;;;;;;;0.61;96.36;102132.91;10337529;28;20065;-71
2022/11/30 07:20:06;;;;;;;20.85;1.52;;;;;;;0.41;97.49;102108.38;10336116;28;20054;-71
2022/11/30 07:30:30;;;;;;;6.78;1.63;;;;;;;0.64;97.35;102127.56;10337022;28;20580;-70
2022/11/30 07:35:31;;;;;;;11.77;1.85;;;;;;;0.37;97.14;102058.88;10338038;28;20046;-71
2022/11/30 07:40:31;;;;;;;12.68;1.80;;;;;;;0.76;96.99;102120.97;10351870;28;20406;-70
2022/11/30 07:45:32;;;;;;;10.10;1.73;;;;;;;0.80;96.93;102104.25;10336452;28;20074;-70
2022/11/30 07:50:33;;;;;;;13.00;1.88;;;;;;;0.86;96.86;102117.91;10336544;28;20066;-71
2022/11/30 07:55:34;;;;;;;6.72;2.15;;;;;;;0.71;96.13;102089.75;10334324;28;20042;-71
2022/11/30 08:00:37;;;;;;;7.15;1.98;;;;;;;0.40;96.22;102036.09;10334804;28;20049;-70
2022/11/30 08:05:38;;;;;;;6.63;1.70;;;;;;;0.79;95.99;102084.25;10333761;28;20040;-71
2022/11/30 08:10:39;;;;;;;9.52;2.47;;;;;;;1.03;96.84;102087.63;10335398;28;20417;-71
2022/11/30 08:15:40;;;;;;;6.93;1.80;;;;;;;0.69;95.66;102028.84;10335304;28;20462;-71
2022/11/30 08:20:40;;;;;;;5.00;1.85;;;;;;;1.05;95.91;102070.09;10334835;28;20046;-73
2022/11/30 08:25:41;;;;;;;9.35;1.83;;;;;;;1.12;95.86;102066.28;10335685;28;20510;-71
2022/11/30 08:30:42;;;;;;;12.75;2.40;;;;;;;0.97;95.78;102025.91;10334601;28;20071;-70
2022/11/30 08:35:42;;;;;;;8.18;2.15;;;;;;;1.26;95.83;102055.25;10333880;28;20046;-71
2022/11/30 08:40:43;;;;;;;9.02;1.88;;;;;;;0.65;95.16;101936.56;10333474;28;20046;-72
2022/11/30 08:45:44;;;;;;;10.50;1.90;;;;;;;1.31;95.47;102034.91;10348796;28;20482;-71
2022/11/30 08:50:45;;;;;;;9.55;1.95;;;;;;;0.86;94.26;101945.25;10334062;28;20073;-71
2022/11/30 08:56:00;;;;;;;15.35;1.70;;;;;;;1.29;95.00;102029.78;10349334;28;20137;-70
2022/11/30 09:01:12;;;;;;;5.38;1.77;;;;;;;1.34;94.74;102034.78;10332904;28;20042;-71
2022/11/30 09:06:15;;;;;;;7.50;2.03;;;;;;;1.52;95.27;102018.25;10348496;28;20514;-72
2022/11/30 09:11:17;;;;;;;5.37;1.93;;;;;;;1.46;94.88;101999.34;10332183;28;20038;-71
2022/11/30 09:16:19;;;;;;;10.13;2.30;;;;;;;1.55;95.32;102019.91;10333897;28;20104;-70
2022/11/30 09:21:22;;;;;;;11.48;3.13;;;;;;;1.53;95.24;102001.66;10332737;28;20153;-70
2022/11/30 09:26:26;;;;;;;12.98;2.17;;;;;;;1.69;94.84;101988.69;10332123;28;20465;-70
2022/11/30 09:31:27;;;;;;;7.03;2.60;;;;;;;1.46;94.11;101923.41;10333109;28;20046;-70
2022/11/30 09:36:28;;;;;;;8.73;2.60;;;;;;;1.90;94.31;101991.25;10330447;28;20065;-71
2022/11/30 09:41:52;;;;;;;9.88;2.58;;;;;;;1.97;93.88;102017.06;10331915;28;20045;-72
2022/11/30 09:47:08;;;;;;;7.63;1.92;;;;;;;1.97;94.58;102000.50;10331586;28;20097;-71
2022/11/30 09:52:16;;;;;;;9.68;2.85;;;;;;;1.92;94.29;102005.13;10332329;28;20047;-70
2022/11/30 09:57:36;;;;;;;9.05;2.55;;;;;;;1.54;94.95;101924.75;10331490;28;20129;-70
2022/11/30 10:02:37;;;;;;;13.25;3.08;;;;;;;1.58;94.52;101928.06;10346615;28;20045;-71
2022/11/30 10:08:03;;;;;;;14.95;2.80;;;;;;;1.94;95.07;102013.75;10331613;28;20057;-70
2022/11/30 10:13:19;;;;;;;9.70;2.25;;;;;;;1.93;95.16;102014.69;10332043;28;20042;-71
2022/11/30 10:18:36;;;;;;;7.53;1.80;;;;;;;2.01;95.46;102009.94;10331260;28;20038;-70
2022/11/30 10:23:36;;;;;;;9.77;2.22;;;;;;;1.97;95.05;102006.59;10350954;28;20411;-72
2022/11/30 10:28:55;;;;;;;6.78;2.17;;;;;;;1.65;96.15;101981.91;10338776;28;20048;-70
2022/11/30 10:34:02;;;;;;;8.75;2.53;;;;;;;1.31;96.01;101933.66;10338479;28;20113;-71
2022/11/30 10:39:18;;;;;;;10.93;2.40;;;;;;;1.72;96.76;101998.19;10338387;28;20046;-73
2022/11/30 10:44:30;;;;;;;6.57;2.08;;;;;;;1.74;96.85;102002.44;10338780;28;20049;-71
2022/11/30 10:49:32;;;;;;;15.43;3.30;;;;;;;1.52;97.27;101965.03;10353842;28;20050;-71
2022/11/30 10:54:35;;;;;;;7.47;2.85;;;;;;;1.60;97.36;101979.47;10337923;28;20137;-72
2022/11/30 10:59:46;;;;;;;16.05;3.78;;;;;;;1.77;97.70;102007.53;10338235;28;20433;-72
2022/11/30 11:05:00;;;;;;;9.15;2.78;;;;;;;0.90;97.25;101863.09;10337246;28;20046;-72
2022/11/30 11:10:01;;;;;;;12.95;4.43;;;;;;;1.71;97.92;101992.09;10338150;28;20049;-70
2022/11/30 11:15:16;;;;;;;14.18;3.40;;;;;;;1.34;97.67;101940.53;10338131;28;20380;-70
2022/11/30 11:20:37;;;;;;;;;;;;;;;1.93;98.22;102026.00;10336592;28;20042;-70
2022/11/30 11:25:41;;;;;;;10.23;3.08;;;;;;;1.56;97.62;101956.13;10337440;28;19917;-70
2022/11/30 11:30:42;;;;;;;9.27;2.72;;;;;;;1.88;98.16;102014.88;10337024;28;20042;-70
2022/11/30 11:35:45;;;;;;;9.43;3.60;;;;;;;1.98;98.53;102010.09;10337174;28;20046;-70
2022/11/30 11:41:04;;;;;;;15.75;2.72;;;;;;;2.01;98.96;102020.44;10336549;28;20050;-71
2022/11/30 11:46:12;;;;;;;8.48;2.33;;;;;;;2.00;98.84;102016.94;10336580;28;20093;-70
2022/11/30 11:51:27;;;;;;;5.35;2.70;;;;;;;2.04;98.57;101994.91;10336590;28;20102;-68
2022/11/30 11:56:31;;;;;;;8.45;2.60;;;;;;;2.24;98.12;102017.56;10335103;28;20498;-69
2022/11/30 12:01:32;;;;;;;9.75;2.30;;;;;;;2.29;97.90;102017.34;10335696;28;20537;-68
2022/11/30 12:06:34;;;;;;;15.88;2.45;;;;;;;1.71;98.51;101944.94;10335700;28;20085;-69
2022/11/30 12:11:43;;;;;;;13.70;3.10;;;;;;;2.30;98.93;102024.28;10350400;28;20038;-69
2022/11/30 12:17:12;;;;;;;12.32;2.90;;;;;;;1.73;98.62;101926.50;10315473;28;20047;-69
2022/11/30 12:22:31;;;;;;;14.32;2.65;;;;;;;2.33;98.39;102018.03;10254806;29;20058;-69
2022/11/30 12:27:44;;;;;;;10.80;2.63;;;;;;;2.41;98.82;102016.75;10254716;28;20488;-69
2022/11/30 12:33:09;;;;;;;5.90;2.63;;;;;;;2.03;98.22;101947.78;10298957;28;20482;-69
2022/11/30 12:38:24;;;;;;;12.10;2.58;;;;;;;2.38;97.76;102031.78;10322475;28;20047;-70
2022/11/30 12:43:41;;;;;;;5.35;2.58;;;;;;;2.39;98.21;102033.47;10333785;28;20522;-70
2022/11/30 12:49:22;;;;;;;10.07;3.60;;;;;;;2.38;98.42;102035.25;10333821;28;20062;-69
2022/11/30 12:54:32;;;;;;;8.70;2.85;;;;;;;2.33;98.52;102042.47;10325579;28;20058;-70
2022/11/30 12:59:44;;;;;;;9.82;2.75;;;;;;;2.35;98.87;102029.31;10306275;28;20050;-70
2022/11/30 13:04:49;;;;;;;5.95;2.10;;;;;;;2.15;99.44;102017.13;10295186;28;20038;-70
2022/11/30 13:10:06;;;;;;;10.40;2.85;;;;;;;2.09;99.45;102018.28;10293690;28;20042;-69
2022/11/30 13:15:19;;;;;;;25.15;9.73;;;;;;;1.86;100.00;101997.56;10293070;28;20455;-70
2022/11/30 13:20:25;;;;;;;11.15;2.90;;;;;;;1.81;99.70;101982.03;10293025;28;20046;-70
2022/11/30 13:25:46;;;;;;;7.85;2.70;;;;;;;1.78;99.97;101969.94;10293067;28;20080;-69
2022/11/30 13:30:59;;;;;;;7.03;2.47;;;;;;;2.24;99.71;102041.19;10291813;28;20046;-70
2022/11/30 13:36:05;;;;;;;8.32;2.17;;;;;;;2.18;99.44;102051.91;10291003;28;20058;-70
2022/11/30 13:41:08;;;;;;;8.43;2.53;;;;;;;2.22;99.21;102066.59;10290667;28;20050;-69
2022/11/30 13:46:19;;;;;;;10.35;2.92;;;;;;;2.12;100.00;102065.31;10292022;28;20090;-69
2022/11/30 13:51:39;;;;;;;7.35;2.85;;;;;;;1.64;100.00;101984.59;10292217;28;20137;-69
2022/11/30 13:56:40;;;;;;;6.10;2.20;;;;;;;1.56;99.11;101971.84;10291039;28;20043;-69
2022/11/30 14:01:40;;;;;;;7.05;1.73;;;;;;;2.12;99.56;102074.97;10291233;28;20074;-72
2022/11/30 14:06:44;;;;;;;6.95;1.45;;;;;;;1.76;99.28;102016.28;10291578;28;20491;-69
2022/11/30 14:11:45;;;;;;;9.75;1.80;;;;;;;2.11;99.27;102073.28;10291316;28;20085;-69
2022/11/30 14:16:46;;;;;;;5.20;1.80;;;;;;;1.82;98.77;102037.00;10291251;28;20039;-70
2022/11/30 14:21:46;;;;;;;6.57;1.80;;;;;;;2.11;98.70;102104.72;10290791;28;20530;-70
2022/11/30 14:26:50;;;;;;;11.23;2.05;;;;;;;2.04;98.53;102099.78;10291772;28;20094;-70
2022/11/30 14:32:06;;;;;;;11.27;2.10;;;;;;;1.97;98.55;102097.47;10290987;28;20054;-70
2022/11/30 14:37:17;;;;;;;9.10;1.95;;;;;;;1.90;98.97;102101.31;10291146;28;20035;-70
2022/11/30 14:42:23;;;;;;;11.07;2.28;;;;;;;1.20;99.19;102001.38;10290795;28;20039;-70
2022/11/30 14:47:32;;;;;;;5.00;1.88;;;;;;;1.81;99.63;102110.44;10291745;28;20109;-70
2022/11/30 14:52:42;;;;;;;12.55;2.40;;;;;;;1.76;100.00;102109.78;10313248;28;20054;-71
2022/11/30 14:57:58;;;;;;;8.32;2.42;;;;;;;1.30;99.72;102025.38;10291186;28;20129;-74
2022/11/30 15:02:59;;;;;;;10.98;2.13;;;;;;;0.98;100.00;101984.88;10289817;28;20054;-72
2022/11/30 15:08:00;;;;;;;7.47;2.30;;;;;;;1.63;100.00;102124.34;10299194;28;20402;-71
2022/11/30 15:13:02;;;;;;;5.80;2.30;;;;;;;1.49;100.00;102096.97;10318940;28;20049;-69
2022/11/30 15:18:17;;;;;;;7.63;2.42;;;;;;;1.64;100.00;102129.50;10297248;28;20043;-69
2022/11/30 15:23:18;;;;;;;8.65;2.58;;;;;;;1.46;100.00;102111.97;10290979;28;20070;-72
2022/11/30 15:28:25;;;;;;;4.05;1.67;;;;;;;0.87;100.00;102038.53;10289017;28;20047;-70
2022/11/30 15:33:33;;;;;;;6.63;2.35;;;;;;;1.40;100.00;102133.19;10294654;28;20971;-70
2022/11/30 15:38:36;;;;;;;5.30;2.13;;;;;;;1.27;100.00;102128.47;10295950;28;20392;-71
2022/11/30 15:43:39;;;;;;;9.02;2.17;;;;;;;1.07;100.00;102113.56;10292164;28;20129;-72
2022/11/30 15:48:40;;;;;;;8.32;1.80;;;;;;;0.98;100.00;102107.88;10291127;28;20055;-73
2022/11/30 15:53:51;;;;;;;5.50;2.35;;;;;;;0.97;100.00;102122.72;10291315;28;20039;-70
2022/11/30 15:59:00;;;;;;;4.55;1.88;;;;;;;0.43;100.00;102056.88;10290529;28;20207;-70
2022/11/30 16:04:04;;;;;;;7.20;2.15;;;;;;;0.83;100.00;102130.28;10286978;28;20407;-71
2022/11/30 16:09:21;;;;;;;6.30;2.90;;;;;;;0.79;100.00;102136.56;10289531;28;20039;-70
2022/11/30 16:14:22;;;;;;;7.05;2.55;;;;;;;0.69;100.00;102123.00;10286782;28;20039;-70
2022/11/30 16:19:23;;;;;;;6.85;2.67;;;;;;;0.33;100.00;102071.22;10289511;28;20133;-71
2022/11/30 16:24:24;;;;;;;6.20;2.50;;;;;;;0.67;100.00;102119.59;10289243;28;20133;-70
2022/11/30 16:29:24;;;;;;;5.55;2.50;;;;;;;0.50;100.00;102088.00;10283318;28;20055;-70
2022/11/30 16:34:25;;;;;;;6.82;3.00;;;;;;;0.08;100.00;102031.25;10295024;28;20038;-71
2022/11/30 16:39:26;;;;;;;8.18;3.03;;;;;;;0.44;100.00;102100.41;10291843;28;20038;-73
2022/11/30 16:44:28;;;;;;;7.72;2.80;;;;;;;0.42;100.00;102088.31;10293455;28;20085;-72
2022/11/30 16:49:29;;;;;;;8.25;2.55;;;;;;;0.12;100.00;102032.84;10292753;28;20082;-71
2022/11/30 16:54:29;;;;;;;9.95;2.95;;;;;;;0.02;100.00;102026.28;10292149;28;20066;-71
2022/11/30 16:59:30;;;;;;;10.05;3.15;;;;;;;0.40;100.00;102103.22;10303627;28;20126;-72
2022/11/30 17:04:31;;;;;;;9.25;2.55;;;;;;;-0.37;100.00;101975.47;10289186;28;20039;-72
2022/11/30 17:09:33;;;;;;;7.85;3.08;;;;;;;0.14;100.00;102052.78;10279905;28;20039;-70
2022/11/30 17:14:34;;;;;;;9.00;2.65;;;;;;;0.39;100.00;102094.53;10280123;28;20078;-74
2022/11/30 17:19:34;;;;;;;6.38;2.40;;;;;;;0.39;100.00;102091.03;10271427;28;20070;-72
2022/11/30 17:24:35;;;;;;;8.30;3.13;;;;;;;0.20;100.00;102076.06;10284876;28;20070;-71
2022/11/30 17:29:36;;;;;;;8.98;2.83;;;;;;;0.26;100.00;102087.19;10264538;28;20472;-72
2022/11/30 17:34:37;;;;;;;8.68;2.90;;;;;;;0.20;100.00;102085.66;10302593;28;20077;-69
2022/11/30 17:39:39;;;;;;;10.25;2.90;;;;;;;-0.26;100.00;102015.09;10331716;28;20498;-71
2022/11/30 17:44:40;;;;;;;8.65;3.20;;;;;;;0.13;100.00;102069.38;10318429;28;20073;-71
2022/11/30 17:49:41;;;;;;;6.68;2.95;;;;;;;-0.05;100.00;102034.34;10311260;28;20089;-72
2022/11/30 17:54:42;;;;;;;9.68;3.05;;;;;;;0.11;100.00;102079.03;10291729;28;20093;-71
2022/11/30 17:59:43;;;;;;;8.75;3.13;;;;;;;0.20;100.00;102081.28;10278119;28;20047;-72
2022/11/30 18:04:44;;;;;;;9.60;3.10;;;;;;;0.22;100.00;102083.84;10280442;28;20031;-72
2022/11/30 18:09:44;;;;;;;10.60;3.00;;;;;;;0.20;100.00;102075.22;10273717;28;20070;-72
2022/11/30 18:14:45;;;;;;;5.55;2.78;;;;;;;0.21;100.00;102072.56;10269452;28;20660;-72
2022/11/30 18:19:46;;;;;;;7.50;2.78;;;;;;;-0.08;100.00;102024.00;10280357;28;20047;-73
2022/11/30 18:24:47;;;;;;;8.35;3.10;;;;;;;0.23;100.00;102081.16;10272607;28;20078;-72
2022/11/30 18:29:48;;;;;;;10.38;3.38;;;;;;;-0.26;100.00;101993.38;10281226;28;20085;-72
2022/11/30 18:34:49;;;;;;;6.03;2.88;;;;;;;0.10;100.00;102058.19;10295333;28;20049;-75
2022/11/30 18:39:50;;;;;;;10.40;2.83;;;;;;;0.18;100.00;102066.56;10271136;28;20046;-72
2022/11/30 18:44:51;;;;;;;8.07;2.67;;;;;;;0.19;100.00;102074.38;10295426;28;20077;-72
2022/11/30 18:49:52;;;;;;;8.10;2.80;;;;;;;0.31;100.00;102088.72;10298293;28;20138;-71
2022/11/30 18:54:52;;;;;;;6.47;2.40;;;;;;;-0.12;100.00;102022.44;10288172;28;20039;-70
2022/11/30 18:59:53;;;;;;;6.65;2.83;;;;;;;0.20;100.00;102072.59;10291024;28;20058;-70
2022/11/30 19:04:54;;;;;;;7.38;2.85;;;;;;;-0.17;100.00;102011.31;10282713;28;20047;-71
2022/11/30 19:09:55;;;;;;;9.35;2.88;;;;;;;0.13;100.00;102069.38;10290512;28;20094;-72
2022/11/30 19:14:56;;;;;;;6.47;2.78;;;;;;;0.25;100.00;102098.56;10278294;28;20035;-71
2022/11/30 19:19:56;;;;;;;6.75;1.90;;;;;;;0.14;100.00;102067.59;10279656;28;20042;-73
2022/11/30 19:24:57;;;;;;;9.02;2.58;;;;;;;0.28;100.00;102090.63;10288257;28;20039;-71
2022/11/30 19:29:58;;;;;;;9.55;2.97;;;;;;;0.05;100.00;102071.41;10279789;28;20193;-71
2022/11/30 19:34:59;;;;;;;7.30;2.22;;;;;;;0.23;100.00;102089.00;10335475;28;20136;-72
2022/11/30 19:40:00;;;;;;;5.03;1.92;;;;;;;0.25;100.00;102094.19;10335078;28;20081;-71
2022/11/30 19:45:01;;;;;;;7.25;2.65;;;;;;;0.09;100.00;102067.81;10313088;28;20075;-71
2022/11/30 19:50:03;;;;;;;8.38;2.08;;;;;;;0.18;100.00;102083.13;10295780;28;20063;-71
2022/11/30 19:55:04;;;;;;;8.95;2.58;;;;;;;-0.24;100.00;102012.44;10302061;28;20078;-70
2022/11/30 20:00:06;;;;;;;9.00;2.33;;;;;;;0.10;100.00;102084.31;10317211;28;20069;-70
2022/11/30 20:05:07;;;;;;;6.45;2.25;;;;;;;-0.22;100.00;102021.06;10295200;28;20629;-70
2022/11/30 20:10:12;;;;;;;7.80;2.22;;;;;;;-0.13;100.00;102057.28;10320740;28;20069;-72
2022/11/30 20:15:12;;;;;;;7.30;2.03;;;;;;;-0.03;100.00;102070.84;10335298;28;20129;-70
2022/11/30 20:20:13;;;;;;;5.25;2.00;;;;;;;0.13;100.00;102090.28;10334017;28;20133;-71
2022/11/30 20:25:14;;;;;;;3.95;1.73;;;;;;;-0.10;100.00;102056.31;10334998;28;20050;-70
2022/11/30 20:30:15;;;;;;;11.85;2.03;;;;;;;0.10;100.00;102077.34;10299245;28;20511;-70
2022/11/30 20:35:16;;;;;;;9.18;2.22;;;;;;;-0.39;100.00;102033.88;10294918;28;20051;-71
2022/11/30 20:40:18;;;;;;;5.47;1.90;;;;;;;0.02;100.00;102091.59;10305924;28;20049;-71
2022/11/30 20:45:18;;;;;;;5.43;2.20;;;;;;;-0.21;100.00;102074.16;10320458;28;20042;-71
2022/11/30 20:50:19;;;;;;;10.10;2.30;;;;;;;-0.48;100.00;102037.69;10293494;28;20051;-70
2022/11/30 20:55:20;;;;;;;8.05;2.00;;;;;;;-0.05;100.00;102104.03;10293963;28;20043;-70
2022/11/30 21:00:21;;;;;;;8.98;2.40;;;;;;;-0.63;100.00;102010.38;10293623;28;20053;-70
2022/11/30 21:05:22;;;;;;;7.47;2.53;;;;;;;-0.07;100.00;102095.41;10292809;28;20038;-70
2022/11/30 21:10:22;;;;;;;7.07;2.35;;;;;;;-0.22;100.00;102068.06;10320403;28;20132;-70
2022/11/30 21:15:23;;;;;;;7.75;1.98;;;;;;;-0.10;100.00;102092.91;10332649;28;20041;-70
2022/11/30 21:20:24;;;;;;;7.70;2.30;;;;;;;-0.62;100.00;102025.16;10332714;28;20053;-72
2022/11/30 21:25:26;;;;;;;9.95;2.28;;;;;;;-0.16;100.00;102116.63;10332528;28;20089;-70
2022/11/30 21:30:26;;;;;;;5.95;2.30;;;;;;;-0.18;100.00;102111.47;10332167;28;20038;-70
2022/11/30 21:35:27;;;;;;;6.78;2.33;;;;;;;-0.22;100.00;102103.78;10331285;28;20099;-71
2022/11/30 21:40:28;;;;;;;9.38;2.42;;;;;;;-0.23;100.00;102084.66;10330934;28;20049;-70
2022/11/30 21:45:29;;;;;;;7.03;3.10;;;;;;;-0.13;100.00;102109.53;10332607;28;20053;-72
2022/11/30 21:50:30;;;;;;;6.95;2.72;;;;;;;-0.30;100.00;102093.63;10331753;28;20054;-70
2022/11/30 21:55:32;;;;;;;5.97;2.80;;;;;;;-0.31;100.00;102095.38;10331424;28;20068;-71
2022/11/30 22:00:33;;;;;;;6.53;3.00;;;;;;;-0.43;100.00;102084.53;10330885;28;20088;-71
2022/11/30 22:05:34;;;;;;;5.50;2.38;;;;;;;-0.24;100.00;102122.13;10332420;28;20387;-71
2022/11/30 22:10:34;;;;;;;8.45;3.03;;;;;;;-0.28;100.00;102116.16;10331072;28;20045;-71
2022/11/30 22:15:35;;;;;;;7.25;2.83;;;;;;;-0.36;100.00;102119.94;10331303;28;20062;-70
2022/11/30 22:20:36;;;;;;;7.78;2.83;;;;;;;-0.35;100.00;102126.91;10338501;28;20104;-71
2022/11/30 22:25:37;;;;;;;7.28;2.70;;;;;;;-0.29;100.00;102126.69;10340151;28;20046;-71
2022/11/30 22:30:38;;;;;;;10.18;3.13;;;;;;;-0.37;100.00;102133.91;10338896;28;20119;-71
2022/11/30 22:35:39;;;;;;;7.28;2.70;;;;;;;-0.64;100.00;102086.13;10338741;28;20098;-72
2022/11/30 22:40:39;;;;;;;6.63;2.72;;;;;;;-0.46;100.00;102122.88;10337245;28;20073;-72
2022/11/30 22:45:40;;;;;;;5.35;2.78;;;;;;;-0.39;100.00;102144.44;10338577;28;20042;-70
2022/11/30 22:50:41;;;;;;;8.45;2.70;;;;;;;-0.56;100.00;102116.28;10338898;28;20058;-70
2022/11/30 22:55:42;;;;;;;12.40;2.78;;;;;;;-0.43;100.00;102123.69;10338312;28;20129;-70
2022/11/30 23:00:42;;;;;;;8.65;2.40;;;;;;;-0.48;100.00;102122.09;10338385;28;20046;-71
2022/11/30 23:05:43;;;;;;;7.68;2.50;;;;;;;-0.51;100.00;102111.78;10338751;28;20129;-70
2022/11/30 23:10:44;;;;;;;6.72;2.38;;;;;;;-0.39;100.00;102127.88;10337975;28;20150;-71
2022/11/30 23:15:45;;;;;;;6.38;2.33;;;;;;;-0.44;100.00;102120.22;10337779;28;20066;-71